sensor_id;sensor_type;location;lat;lon;timestamp;temperature;humidity
34099;DHT22;20374;49.474;10.944;2023-04-25T00:01:46;8.20;99.90
34099;DHT22;20374;49.474;10.944;2023-04-25T00:04:12;8.20;99.90
34099;DHT22;20374;49.474;10.944;2023-04-25T00:06:38;8.20;99.90
34099;DHT22;20374;49.474;10.944;2023-04-25T00:09:06;8.20;99.90
34099;DHT22;20374;49.474;10.944;2023-04-25T00:11:37;8.30;99.90
34099;DHT22;20374;49.474;10.944;2023-04-25T00:14:03;8.20;99.90
34099;DHT22;20374;49.474;10.944;2023-04-25T00:16:30;8.30;99.90
34099;DHT22;20374;49.474;10.944;2023-04-25T00:18:59;8.20;99.90
34099;DHT22;20374;49.474;10.944;2023-04-25T00:21:25;8.20;99.90
34099;DHT22;20374;49.474;10.944;2023-04-25T00:23:55;8.30;99.90
34099;DHT22;20374;49.474;10.944;2023-04-25T00:26:21;8.20;99.90
34099;DHT22;20374;49.474;10.944;2023-04-25T00:28:47;8.20;99.90
34099;DHT22;20374;49.474;10.944;2023-04-25T00:31:13;8.20;99.90
34099;DHT22;20374;49.474;10.944;2023-04-25T00:33:39;8.20;99.90
34099;DHT22;20374;49.474;10.944;2023-04-25T00:36:06;8.30;99.90
34099;DHT22;20374;49.474;10.944;2023-04-25T00:38:32;8.30;99.90
34099;DHT22;20374;49.474;10.944;2023-04-25T00:40:58;8.20;99.90
34099;DHT22;20374;49.474;10.944;2023-04-25T00:43:28;8.20;99.90
34099;DHT22;20374;49.474;10.944;2023-04-25T00:45:56;8.20;99.90
34099;DHT22;20374;49.474;10.944;2023-04-25T00:48:23;8.30;99.90
34099;DHT22;20374;49.474;10.944;2023-04-25T00:50:54;8.20;99.90
34099;DHT22;20374;49.474;10.944;2023-04-25T00:53:21;8.20;99.90
34099;DHT22;20374;49.474;10.944;2023-04-25T00:55:48;8.20;99.90
34099;DHT22;20374;49.474;10.944;2023-04-25T00:58:20;8.20;99.90
34099;DHT22;20374;49.474;10.944;2023-04-25T01:00:47;8.20;99.90
34099;DHT22;20374;49.474;10.944;2023-04-25T01:03:15;8.20;99.90
34099;DHT22;20374;49.474;10.944;2023-04-25T01:05:45;8.20;99.90
34099;DHT22;20374;49.474;10.944;2023-04-25T01:08:12;8.20;99.90
34099;DHT22;20374;49.474;10.944;2023-04-25T01:10:38;8.20;99.90
34099;DHT22;20374;49.474;10.944;2023-04-25T01:13:04;8.00;99.90
34099;DHT22;20374;49.474;10.944;2023-04-25T01:15:30;8.10;99.90
34099;DHT22;20374;49.474;10.944;2023-04-25T01:17:57;8.10;99.90
34099;DHT22;20374;49.474;10.944;2023-04-25T01:20:24;8.10;99.90
34099;DHT22;20374;49.474;10.944;2023-04-25T01:22:51;8.00;99.90
34099;DHT22;20374;49.474;10.944;2023-04-25T01:25:19;8.00;99.90
34099;DHT22;20374;49.474;10.944;2023-04-25T01:27:46;8.00;99.90
34099;DHT22;20374;49.474;10.944;2023-04-25T01:30:13;7.90;99.90
34099;DHT22;20374;49.474;10.944;2023-04-25T01:32:42;7.90;99.90
34099;DHT22;20374;49.474;10.944;2023-04-25T01:35:12;7.80;99.90
34099;DHT22;20374;49.474;10.944;2023-04-25T01:37:42;7.80;99.90
34099;DHT22;20374;49.474;10.944;2023-04-25T01:40:12;7.70;99.90
34099;DHT22;20374;49.474;10.944;2023-04-25T01:42:39;7.70;99.90
34099;DHT22;20374;49.474;10.944;2023-04-25T01:45:07;7.60;99.90
34099;DHT22;20374;49.474;10.944;2023-04-25T01:47:33;7.60;99.90
34099;DHT22;20374;49.474;10.944;2023-04-25T01:50:04;7.60;99.90
34099;DHT22;20374;49.474;10.944;2023-04-25T01:52:31;7.60;99.90
34099;DHT22;20374;49.474;10.944;2023-04-25T01:55:00;7.60;99.90
34099;DHT22;20374;49.474;10.944;2023-04-25T01:57:28;7.60;99.90
34099;DHT22;20374;49.474;10.944;2023-04-25T02:00:01;7.70;99.90
34099;DHT22;20374;49.474;10.944;2023-04-25T02:02:40;7.70;99.90
34099;DHT22;20374;49.474;10.944;2023-04-25T02:05:24;7.60;99.90
34099;DHT22;20374;49.474;10.944;2023-04-25T02:07:51;7.60;99.90
34099;DHT22;20374;49.474;10.944;2023-04-25T02:10:17;7.60;99.90
34099;DHT22;20374;49.474;10.944;2023-04-25T02:13:03;7.60;99.90
34099;DHT22;20374;49.474;10.944;2023-04-25T02:15:54;7.60;99.90
34099;DHT22;20374;49.474;10.944;2023-04-25T02:18:20;7.50;99.90
34099;DHT22;20374;49.474;10.944;2023-04-25T02:20:47;7.60;99.90
34099;DHT22;20374;49.474;10.944;2023-04-25T02:23:13;7.60;99.90
34099;DHT22;20374;49.474;10.944;2023-04-25T02:25:41;7.60;99.90
34099;DHT22;20374;49.474;10.944;2023-04-25T02:28:07;7.60;99.90
34099;DHT22;20374;49.474;10.944;2023-04-25T02:30:33;7.50;99.90
34099;DHT22;20374;49.474;10.944;2023-04-25T02:32:59;7.60;99.90
34099;DHT22;20374;49.474;10.944;2023-04-25T02:35:25;7.60;99.90
34099;DHT22;20374;49.474;10.944;2023-04-25T02:37:53;7.50;99.90
34099;DHT22;20374;49.474;10.944;2023-04-25T02:40:19;7.50;99.90
34099;DHT22;20374;49.474;10.944;2023-04-25T02:42:45;7.50;99.90
34099;DHT22;20374;49.474;10.944;2023-04-25T02:45:14;7.50;99.90
34099;DHT22;20374;49.474;10.944;2023-04-25T02:47:40;7.50;99.90
34099;DHT22;20374;49.474;10.944;2023-04-25T02:50:06;7.50;99.90
34099;DHT22;20374;49.474;10.944;2023-04-25T02:52:32;7.40;99.90
34099;DHT22;20374;49.474;10.944;2023-04-25T02:55:09;7.40;99.90
34099;DHT22;20374;49.474;10.944;2023-04-25T02:57:37;7.40;99.90
34099;DHT22;20374;49.474;10.944;2023-04-25T03:00:03;7.30;99.90
34099;DHT22;20374;49.474;10.944;2023-04-25T03:02:30;7.30;99.90
34099;DHT22;20374;49.474;10.944;2023-04-25T03:04:56;7.40;99.90
34099;DHT22;20374;49.474;10.944;2023-04-25T03:07:23;7.40;99.90
34099;DHT22;20374;49.474;10.944;2023-04-25T03:09:49;7.40;99.90
34099;DHT22;20374;49.474;10.944;2023-04-25T03:12:15;7.40;99.90
34099;DHT22;20374;49.474;10.944;2023-04-25T03:14:41;7.30;99.90
34099;DHT22;20374;49.474;10.944;2023-04-25T03:17:07;7.20;99.90
34099;DHT22;20374;49.474;10.944;2023-04-25T03:19:34;7.20;99.90
34099;DHT22;20374;49.474;10.944;2023-04-25T03:22:01;7.20;99.90
34099;DHT22;20374;49.474;10.944;2023-04-25T03:24:28;7.20;99.90
34099;DHT22;20374;49.474;10.944;2023-04-25T03:26:54;7.20;99.90
34099;DHT22;20374;49.474;10.944;2023-04-25T03:29:20;7.20;99.90
34099;DHT22;20374;49.474;10.944;2023-04-25T03:31:51;7.20;99.90
34099;DHT22;20374;49.474;10.944;2023-04-25T03:34:18;7.10;99.90
34099;DHT22;20374;49.474;10.944;2023-04-25T03:36:44;7.00;99.90
34099;DHT22;20374;49.474;10.944;2023-04-25T03:39:11;6.90;99.90
34099;DHT22;20374;49.474;10.944;2023-04-25T03:41:39;6.90;99.90
34099;DHT22;20374;49.474;10.944;2023-04-25T03:44:11;6.90;99.90
34099;DHT22;20374;49.474;10.944;2023-04-25T03:46:37;6.80;99.90
34099;DHT22;20374;49.474;10.944;2023-04-25T03:49:03;6.80;99.90
34099;DHT22;20374;49.474;10.944;2023-04-25T03:51:49;6.80;99.90
34099;DHT22;20374;49.474;10.944;2023-04-25T03:54:15;6.80;99.90
34099;DHT22;20374;49.474;10.944;2023-04-25T03:56:58;6.80;99.90
34099;DHT22;20374;49.474;10.944;2023-04-25T03:59:27;6.90;99.90
34099;DHT22;20374;49.474;10.944;2023-04-25T04:01:53;6.90;99.90
34099;DHT22;20374;49.474;10.944;2023-04-25T04:04:19;6.90;99.90
34099;DHT22;20374;49.474;10.944;2023-04-25T04:06:45;7.00;99.90
34099;DHT22;20374;49.474;10.944;2023-04-25T04:09:25;7.00;99.90
34099;DHT22;20374;49.474;10.944;2023-04-25T04:11:51;7.10;99.90
34099;DHT22;20374;49.474;10.944;2023-04-25T04:14:17;7.10;99.90
34099;DHT22;20374;49.474;10.944;2023-04-25T04:16:46;7.10;99.90
34099;DHT22;20374;49.474;10.944;2023-04-25T04:19:12;7.20;99.90
34099;DHT22;20374;49.474;10.944;2023-04-25T04:21:43;7.20;99.90
34099;DHT22;20374;49.474;10.944;2023-04-25T04:24:09;7.20;99.90
34099;DHT22;20374;49.474;10.944;2023-04-25T04:27:02;7.20;99.90
34099;DHT22;20374;49.474;10.944;2023-04-25T04:29:36;7.30;99.90
34099;DHT22;20374;49.474;10.944;2023-04-25T04:32:25;7.30;99.90
34099;DHT22;20374;49.474;10.944;2023-04-25T04:34:53;7.20;99.90
34099;DHT22;20374;49.474;10.944;2023-04-25T04:37:22;7.30;99.90
34099;DHT22;20374;49.474;10.944;2023-04-25T04:39:48;7.30;99.90
34099;DHT22;20374;49.474;10.944;2023-04-25T04:42:28;7.30;99.90
34099;DHT22;20374;49.474;10.944;2023-04-25T04:45:07;7.10;99.90
34099;DHT22;20374;49.474;10.944;2023-04-25T04:47:52;7.30;99.90
34099;DHT22;20374;49.474;10.944;2023-04-25T04:50:33;7.30;99.90
34099;DHT22;20374;49.474;10.944;2023-04-25T04:53:16;7.30;99.90
34099;DHT22;20374;49.474;10.944;2023-04-25T04:55:57;7.30;99.90
34099;DHT22;20374;49.474;10.944;2023-04-25T04:58:41;7.30;99.90
34099;DHT22;20374;49.474;10.944;2023-04-25T05:01:36;7.30;99.90
34099;DHT22;20374;49.474;10.944;2023-04-25T05:04:26;7.30;99.90
34099;DHT22;20374;49.474;10.944;2023-04-25T05:07:03;7.40;99.90
34099;DHT22;20374;49.474;10.944;2023-04-25T05:09:51;7.40;99.90
34099;DHT22;20374;49.474;10.944;2023-04-25T05:12:47;7.40;99.90
34099;DHT22;20374;49.474;10.944;2023-04-25T05:15:36;7.40;99.90
34099;DHT22;20374;49.474;10.944;2023-04-25T05:18:17;7.50;99.90
34099;DHT22;20374;49.474;10.944;2023-04-25T05:20:56;7.50;99.90
34099;DHT22;20374;49.474;10.944;2023-04-25T05:23:44;7.50;99.90
34099;DHT22;20374;49.474;10.944;2023-04-25T05:26:22;7.50;99.90
34099;DHT22;20374;49.474;10.944;2023-04-25T05:29:15;7.50;99.90
34099;DHT22;20374;49.474;10.944;2023-04-25T05:32:16;7.50;99.90
34099;DHT22;20374;49.474;10.944;2023-04-25T05:34:45;7.50;99.90
34099;DHT22;20374;49.474;10.944;2023-04-25T05:37:20;7.50;99.90
34099;DHT22;20374;49.474;10.944;2023-04-25T05:40:01;7.50;99.90
34099;DHT22;20374;49.474;10.944;2023-04-25T05:42:44;7.50;99.90
34099;DHT22;20374;49.474;10.944;2023-04-25T05:45:26;7.50;99.90
34099;DHT22;20374;49.474;10.944;2023-04-25T05:48:09;7.40;99.90
34099;DHT22;20374;49.474;10.944;2023-04-25T05:50:58;7.40;99.90
34099;DHT22;20374;49.474;10.944;2023-04-25T05:53:42;7.40;99.90
34099;DHT22;20374;49.474;10.944;2023-04-25T05:56:09;7.40;99.90
34099;DHT22;20374;49.474;10.944;2023-04-25T05:58:34;7.40;99.90
34099;DHT22;20374;49.474;10.944;2023-04-25T06:01:02;7.40;99.90
34099;DHT22;20374;49.474;10.944;2023-04-25T06:03:28;7.40;99.90
34099;DHT22;20374;49.474;10.944;2023-04-25T06:05:56;7.30;99.90
34099;DHT22;20374;49.474;10.944;2023-04-25T06:08:22;7.30;99.90
34099;DHT22;20374;49.474;10.944;2023-04-25T06:10:48;7.20;99.90
34099;DHT22;20374;49.474;10.944;2023-04-25T06:13:14;7.10;99.90
34099;DHT22;20374;49.474;10.944;2023-04-25T06:15:41;7.00;99.90
34099;DHT22;20374;49.474;10.944;2023-04-25T06:18:07;7.00;99.90
34099;DHT22;20374;49.474;10.944;2023-04-25T06:20:33;6.90;99.90
34099;DHT22;20374;49.474;10.944;2023-04-25T06:23:00;6.90;99.90
34099;DHT22;20374;49.474;10.944;2023-04-25T06:25:39;6.90;99.90
34099;DHT22;20374;49.474;10.944;2023-04-25T06:28:05;6.90;99.90
34099;DHT22;20374;49.474;10.944;2023-04-25T06:30:31;6.90;99.90
34099;DHT22;20374;49.474;10.944;2023-04-25T06:33:03;6.90;99.90
34099;DHT22;20374;49.474;10.944;2023-04-25T06:35:29;6.90;99.90
34099;DHT22;20374;49.474;10.944;2023-04-25T06:37:55;6.90;99.90
34099;DHT22;20374;49.474;10.944;2023-04-25T06:40:23;6.90;99.90
34099;DHT22;20374;49.474;10.944;2023-04-25T06:42:49;6.90;99.90
34099;DHT22;20374;49.474;10.944;2023-04-25T06:45:33;7.00;99.90
34099;DHT22;20374;49.474;10.944;2023-04-25T06:48:00;7.10;99.90
34099;DHT22;20374;49.474;10.944;2023-04-25T06:50:26;7.20;99.90
34099;DHT22;20374;49.474;10.944;2023-04-25T06:52:52;7.30;99.90
34099;DHT22;20374;49.474;10.944;2023-04-25T06:55:19;7.50;99.90
34099;DHT22;20374;49.474;10.944;2023-04-25T06:58:18;7.60;99.90
34099;DHT22;20374;49.474;10.944;2023-04-25T07:01:01;7.60;99.90
34099;DHT22;20374;49.474;10.944;2023-04-25T07:03:27;7.50;99.90
34099;DHT22;20374;49.474;10.944;2023-04-25T07:05:58;7.40;99.90
34099;DHT22;20374;49.474;10.944;2023-04-25T07:08:25;7.40;99.90
34099;DHT22;20374;49.474;10.944;2023-04-25T07:10:50;7.40;99.90
34099;DHT22;20374;49.474;10.944;2023-04-25T07:13:16;7.30;99.90
34099;DHT22;20374;49.474;10.944;2023-04-25T07:15:43;7.30;99.90
34099;DHT22;20374;49.474;10.944;2023-04-25T07:18:10;7.00;99.90
34099;DHT22;20374;49.474;10.944;2023-04-25T07:20:36;6.90;99.90
34099;DHT22;20374;49.474;10.944;2023-04-25T07:23:03;6.80;99.90
34099;DHT22;20374;49.474;10.944;2023-04-25T07:25:29;6.80;99.90
34099;DHT22;20374;49.474;10.944;2023-04-25T07:27:56;6.70;99.90
34099;DHT22;20374;49.474;10.944;2023-04-25T07:30:22;6.60;99.90
34099;DHT22;20374;49.474;10.944;2023-04-25T07:32:49;6.60;99.90
34099;DHT22;20374;49.474;10.944;2023-04-25T07:35:16;6.50;99.90
34099;DHT22;20374;49.474;10.944;2023-04-25T07:37:42;6.50;99.90
34099;DHT22;20374;49.474;10.944;2023-04-25T07:40:12;6.50;99.90
34099;DHT22;20374;49.474;10.944;2023-04-25T07:42:43;6.50;99.90
34099;DHT22;20374;49.474;10.944;2023-04-25T07:45:11;6.50;99.90
34099;DHT22;20374;49.474;10.944;2023-04-25T07:47:39;6.50;99.90
34099;DHT22;20374;49.474;10.944;2023-04-25T07:50:06;6.40;99.90
34099;DHT22;20374;49.474;10.944;2023-04-25T07:52:33;6.40;99.90
34099;DHT22;20374;49.474;10.944;2023-04-25T07:55:13;6.20;99.90
34099;DHT22;20374;49.474;10.944;2023-04-25T07:58:03;6.20;99.90
34099;DHT22;20374;49.474;10.944;2023-04-25T08:00:31;6.10;99.90
34099;DHT22;20374;49.474;10.944;2023-04-25T08:03:17;6.10;99.90
34099;DHT22;20374;49.474;10.944;2023-04-25T08:05:43;6.20;99.90
34099;DHT22;20374;49.474;10.944;2023-04-25T08:08:09;6.30;99.90
34099;DHT22;20374;49.474;10.944;2023-04-25T08:10:35;6.50;99.90
34099;DHT22;20374;49.474;10.944;2023-04-25T08:13:01;6.70;99.90
34099;DHT22;20374;49.474;10.944;2023-04-25T08:15:27;6.80;99.90
34099;DHT22;20374;49.474;10.944;2023-04-25T08:17:53;7.00;99.90
34099;DHT22;20374;49.474;10.944;2023-04-25T08:20:20;7.10;99.90
34099;DHT22;20374;49.474;10.944;2023-04-25T08:22:46;7.20;99.90
34099;DHT22;20374;49.474;10.944;2023-04-25T08:25:35;7.40;99.90
34099;DHT22;20374;49.474;10.944;2023-04-25T08:28:01;7.50;99.90
34099;DHT22;20374;49.474;10.944;2023-04-25T08:30:29;7.70;99.90
34099;DHT22;20374;49.474;10.944;2023-04-25T08:32:55;7.80;99.90
34099;DHT22;20374;49.474;10.944;2023-04-25T08:35:51;7.80;99.90
34099;DHT22;20374;49.474;10.944;2023-04-25T08:38:17;7.90;99.90
34099;DHT22;20374;49.474;10.944;2023-04-25T08:40:44;7.90;99.90
34099;DHT22;20374;49.474;10.944;2023-04-25T08:43:15;8.20;99.90
34099;DHT22;20374;49.474;10.944;2023-04-25T08:45:43;8.20;99.90
34099;DHT22;20374;49.474;10.944;2023-04-25T08:48:17;8.20;99.90
34099;DHT22;20374;49.474;10.944;2023-04-25T08:50:54;8.20;99.90
34099;DHT22;20374;49.474;10.944;2023-04-25T08:53:31;8.10;99.90
34099;DHT22;20374;49.474;10.944;2023-04-25T08:56:00;7.90;99.90
34099;DHT22;20374;49.474;10.944;2023-04-25T08:58:35;7.80;99.90
34099;DHT22;20374;49.474;10.944;2023-04-25T09:01:02;7.70;99.90
34099;DHT22;20374;49.474;10.944;2023-04-25T09:03:33;7.60;99.90
34099;DHT22;20374;49.474;10.944;2023-04-25T09:06:00;7.50;99.90
34099;DHT22;20374;49.474;10.944;2023-04-25T09:08:26;7.50;99.90
34099;DHT22;20374;49.474;10.944;2023-04-25T09:10:52;7.60;99.90
34099;DHT22;20374;49.474;10.944;2023-04-25T09:13:25;8.00;99.90
34099;DHT22;20374;49.474;10.944;2023-04-25T09:16:10;8.60;99.90
34099;DHT22;20374;49.474;10.944;2023-04-25T09:19:21;9.80;99.90
34099;DHT22;20374;49.474;10.944;2023-04-25T09:21:54;12.00;99.90
34099;DHT22;20374;49.474;10.944;2023-04-25T09:24:40;13.70;99.90
34099;DHT22;20374;49.474;10.944;2023-04-25T09:27:11;14.80;99.90
34099;DHT22;20374;49.474;10.944;2023-04-25T09:29:39;15.20;99.90
34099;DHT22;20374;49.474;10.944;2023-04-25T09:32:20;14.60;99.90
34099;DHT22;20374;49.474;10.944;2023-04-25T09:34:50;14.20;99.90
34099;DHT22;20374;49.474;10.944;2023-04-25T09:40:06;13.90;99.90
34099;DHT22;20374;49.474;10.944;2023-04-25T09:42:41;13.20;99.90
34099;DHT22;20374;49.474;10.944;2023-04-25T09:45:07;12.60;99.90
34099;DHT22;20374;49.474;10.944;2023-04-25T09:47:40;12.60;99.90
34099;DHT22;20374;49.474;10.944;2023-04-25T09:50:15;13.60;99.90
34099;DHT22;20374;49.474;10.944;2023-04-25T09:52:43;14.10;99.90
34099;DHT22;20374;49.474;10.944;2023-04-25T09:55:16;13.80;99.90
34099;DHT22;20374;49.474;10.944;2023-04-25T09:57:45;13.30;99.90
34099;DHT22;20374;49.474;10.944;2023-04-25T10:00:15;12.80;99.90
34099;DHT22;20374;49.474;10.944;2023-04-25T10:02:43;12.20;99.90
34099;DHT22;20374;49.474;10.944;2023-04-25T10:05:24;11.80;99.90
34099;DHT22;20374;49.474;10.944;2023-04-25T10:07:51;11.40;99.90
34099;DHT22;20374;49.474;10.944;2023-04-25T10:10:17;11.70;99.90
34099;DHT22;20374;49.474;10.944;2023-04-25T10:12:45;13.20;99.90
34099;DHT22;20374;49.474;10.944;2023-04-25T10:15:12;14.30;99.90
34099;DHT22;20374;49.474;10.944;2023-04-25T10:17:39;15.40;98.10
34099;DHT22;20374;49.474;10.944;2023-04-25T10:20:06;15.60;94.70
34099;DHT22;20374;49.474;10.944;2023-04-25T10:22:42;14.80;92.80
34099;DHT22;20374;49.474;10.944;2023-04-25T10:25:09;13.60;93.40
34099;DHT22;20374;49.474;10.944;2023-04-25T10:27:35;12.70;96.20
34099;DHT22;20374;49.474;10.944;2023-04-25T10:30:08;11.80;96.70
34099;DHT22;20374;49.474;10.944;2023-04-25T10:32:41;11.60;99.10
34099;DHT22;20374;49.474;10.944;2023-04-25T10:35:27;12.80;99.90
34099;DHT22;20374;49.474;10.944;2023-04-25T10:40:24;15.80;91.50
34099;DHT22;20374;49.474;10.944;2023-04-25T10:42:52;16.40;90.00
34099;DHT22;20374;49.474;10.944;2023-04-25T10:45:20;16.20;88.30
34099;DHT22;20374;49.474;10.944;2023-04-25T10:47:46;15.20;85.90
34099;DHT22;20374;49.474;10.944;2023-04-25T10:50:14;14.20;90.70
34099;DHT22;20374;49.474;10.944;2023-04-25T10:52:42;13.40;90.70
34099;DHT22;20374;49.474;10.944;2023-04-25T10:55:08;12.90;92.20
34099;DHT22;20374;49.474;10.944;2023-04-25T10:57:44;13.70;93.20
34099;DHT22;20374;49.474;10.944;2023-04-25T11:00:19;15.50;92.10
34099;DHT22;20374;49.474;10.944;2023-04-25T11:02:48;16.80;87.90
34099;DHT22;20374;49.474;10.944;2023-04-25T11:05:31;17.80;79.80
34099;DHT22;20374;49.474;10.944;2023-04-25T11:07:58;17.70;82.80
34099;DHT22;20374;49.474;10.944;2023-04-25T11:10:26;16.90;79.30
34099;DHT22;20374;49.474;10.944;2023-04-25T11:12:52;15.50;83.10
34099;DHT22;20374;49.474;10.944;2023-04-25T11:15:18;14.60;86.10
34099;DHT22;20374;49.474;10.944;2023-04-25T11:17:44;13.60;87.50
34099;DHT22;20374;49.474;10.944;2023-04-25T11:20:12;13.10;91.60
34099;DHT22;20374;49.474;10.944;2023-04-25T11:22:40;12.70;90.60
34099;DHT22;20374;49.474;10.944;2023-04-25T11:25:10;12.30;89.40
34099;DHT22;20374;49.474;10.944;2023-04-25T11:27:59;12.00;88.10
34099;DHT22;20374;49.474;10.944;2023-04-25T11:30:28;11.70;89.60
34099;DHT22;20374;49.474;10.944;2023-04-25T11:32:56;11.80;92.50
34099;DHT22;20374;49.474;10.944;2023-04-25T11:35:22;11.80;91.80
34099;DHT22;20374;49.474;10.944;2023-04-25T11:37:48;12.40;93.20
34099;DHT22;20374;49.474;10.944;2023-04-25T11:40:15;13.10;88.10
34099;DHT22;20374;49.474;10.944;2023-04-25T11:42:46;14.20;90.40
34099;DHT22;20374;49.474;10.944;2023-04-25T11:45:13;15.30;87.90
34099;DHT22;20374;49.474;10.944;2023-04-25T11:47:39;16.60;82.20
34099;DHT22;20374;49.474;10.944;2023-04-25T11:50:07;16.70;76.80
34099;DHT22;20374;49.474;10.944;2023-04-25T11:52:44;16.10;77.90
34099;DHT22;20374;49.474;10.944;2023-04-25T11:57:41;14.80;81.70
34099;DHT22;20374;49.474;10.944;2023-04-25T12:00:29;14.10;80.60
34099;DHT22;20374;49.474;10.944;2023-04-25T12:02:55;13.60;81.60
34099;DHT22;20374;49.474;10.944;2023-04-25T12:05:29;13.30;83.10
34099;DHT22;20374;49.474;10.944;2023-04-25T12:07:55;13.30;84.60
34099;DHT22;20374;49.474;10.944;2023-04-25T12:10:21;13.50;83.50
34099;DHT22;20374;49.474;10.944;2023-04-25T12:12:48;13.80;86.10
34099;DHT22;20374;49.474;10.944;2023-04-25T12:15:16;13.60;81.30
34099;DHT22;20374;49.474;10.944;2023-04-25T12:17:48;13.70;86.90
34099;DHT22;20374;49.474;10.944;2023-04-25T12:20:18;13.60;83.00
34099;DHT22;20374;49.474;10.944;2023-04-25T12:22:48;13.50;82.80
34099;DHT22;20374;49.474;10.944;2023-04-25T12:25:41;13.50;84.90
34099;DHT22;20374;49.474;10.944;2023-04-25T12:28:18;13.70;87.30
34099;DHT22;20374;49.474;10.944;2023-04-25T12:30:58;13.60;81.90
34099;DHT22;20374;49.474;10.944;2023-04-25T12:33:25;13.10;82.90
34099;DHT22;20374;49.474;10.944;2023-04-25T12:35:55;13.00;88.50
34099;DHT22;20374;49.474;10.944;2023-04-25T12:40:51;12.90;86.30
34099;DHT22;20374;49.474;10.944;2023-04-25T12:43:17;12.60;87.20
34099;DHT22;20374;49.474;10.944;2023-04-25T12:45:45;12.30;88.70
34099;DHT22;20374;49.474;10.944;2023-04-25T12:48:13;12.00;89.40
34099;DHT22;20374;49.474;10.944;2023-04-25T12:50:39;11.80;91.50
34099;DHT22;20374;49.474;10.944;2023-04-25T12:53:06;11.80;90.70
34099;DHT22;20374;49.474;10.944;2023-04-25T12:55:32;12.10;89.10
34099;DHT22;20374;49.474;10.944;2023-04-25T12:57:58;12.50;90.80
34099;DHT22;20374;49.474;10.944;2023-04-25T13:00:24;12.60;90.00
34099;DHT22;20374;49.474;10.944;2023-04-25T13:02:50;12.60;90.70
34099;DHT22;20374;49.474;10.944;2023-04-25T13:05:16;12.60;89.30
34099;DHT22;20374;49.474;10.944;2023-04-25T13:07:42;12.50;88.90
34099;DHT22;20374;49.474;10.944;2023-04-25T13:10:08;12.40;87.50
34099;DHT22;20374;49.474;10.944;2023-04-25T13:12:34;12.40;90.00
34099;DHT22;20374;49.474;10.944;2023-04-25T13:15:00;12.40;91.20
34099;DHT22;20374;49.474;10.944;2023-04-25T13:17:26;12.30;90.50
34099;DHT22;20374;49.474;10.944;2023-04-25T13:19:52;12.50;89.90
34099;DHT22;20374;49.474;10.944;2023-04-25T13:22:18;12.40;90.00
34099;DHT22;20374;49.474;10.944;2023-04-25T13:24:46;12.60;89.50
34099;DHT22;20374;49.474;10.944;2023-04-25T13:27:12;12.60;86.90
34099;DHT22;20374;49.474;10.944;2023-04-25T13:29:39;12.60;89.30
34099;DHT22;20374;49.474;10.944;2023-04-25T13:32:07;12.60;88.60
34099;DHT22;20374;49.474;10.944;2023-04-25T13:34:33;12.50;89.30
34099;DHT22;20374;49.474;10.944;2023-04-25T13:36:59;12.30;90.30
34099;DHT22;20374;49.474;10.944;2023-04-25T13:39:25;12.20;91.30
34099;DHT22;20374;49.474;10.944;2023-04-25T13:41:51;12.20;91.40
34099;DHT22;20374;49.474;10.944;2023-04-25T13:44:17;12.10;92.00
34099;DHT22;20374;49.474;10.944;2023-04-25T13:46:43;12.10;91.50
34099;DHT22;20374;49.474;10.944;2023-04-25T13:49:09;12.00;90.80
34099;DHT22;20374;49.474;10.944;2023-04-25T13:51:35;12.00;91.50
34099;DHT22;20374;49.474;10.944;2023-04-25T13:54:01;11.90;91.10
34099;DHT22;20374;49.474;10.944;2023-04-25T13:56:29;12.10;91.00
34099;DHT22;20374;49.474;10.944;2023-04-25T13:58:55;12.30;90.60
34099;DHT22;20374;49.474;10.944;2023-04-25T14:01:22;12.40;91.80
34099;DHT22;20374;49.474;10.944;2023-04-25T14:03:48;12.40;91.80
34099;DHT22;20374;49.474;10.944;2023-04-25T14:06:14;12.30;90.90
34099;DHT22;20374;49.474;10.944;2023-04-25T14:08:42;12.20;91.00
34099;DHT22;20374;49.474;10.944;2023-04-25T14:11:08;12.30;92.20
34099;DHT22;20374;49.474;10.944;2023-04-25T14:13:34;12.30;92.30
34099;DHT22;20374;49.474;10.944;2023-04-25T14:16:00;12.00;92.00
34099;DHT22;20374;49.474;10.944;2023-04-25T14:18:26;11.90;92.30
34099;DHT22;20374;49.474;10.944;2023-04-25T14:20:52;11.80;92.50
34099;DHT22;20374;49.474;10.944;2023-04-25T14:23:21;11.80;91.90
34099;DHT22;20374;49.474;10.944;2023-04-25T14:25:54;11.60;91.80
34099;DHT22;20374;49.474;10.944;2023-04-25T14:28:20;11.50;93.10
34099;DHT22;20374;49.474;10.944;2023-04-25T14:30:46;11.20;94.70
34099;DHT22;20374;49.474;10.944;2023-04-25T14:33:12;11.10;95.40
34099;DHT22;20374;49.474;10.944;2023-04-25T14:35:39;11.00;94.70
34099;DHT22;20374;49.474;10.944;2023-04-25T14:38:05;10.80;95.10
34099;DHT22;20374;49.474;10.944;2023-04-25T14:40:31;10.60;94.90
34099;DHT22;20374;49.474;10.944;2023-04-25T14:42:57;10.50;94.90
34099;DHT22;20374;49.474;10.944;2023-04-25T14:45:23;10.50;95.20
34099;DHT22;20374;49.474;10.944;2023-04-25T14:47:49;10.50;95.00
34099;DHT22;20374;49.474;10.944;2023-04-25T14:50:17;10.50;94.60
34099;DHT22;20374;49.474;10.944;2023-04-25T14:52:44;10.40;94.80
34099;DHT22;20374;49.474;10.944;2023-04-25T14:55:10;10.40;95.40
34099;DHT22;20374;49.474;10.944;2023-04-25T14:57:37;10.30;95.50
34099;DHT22;20374;49.474;10.944;2023-04-25T15:00:05;10.20;95.60
34099;DHT22;20374;49.474;10.944;2023-04-25T15:02:36;10.40;95.20
34099;DHT22;20374;49.474;10.944;2023-04-25T15:05:02;10.40;95.00
34099;DHT22;20374;49.474;10.944;2023-04-25T15:07:28;10.50;95.40
34099;DHT22;20374;49.474;10.944;2023-04-25T15:09:55;10.60;96.00
34099;DHT22;20374;49.474;10.944;2023-04-25T15:12:22;10.70;95.00
34099;DHT22;20374;49.474;10.944;2023-04-25T15:14:48;10.70;94.80
34099;DHT22;20374;49.474;10.944;2023-04-25T15:17:14;10.80;95.50
34099;DHT22;20374;49.474;10.944;2023-04-25T15:19:40;10.70;95.40
34099;DHT22;20374;49.474;10.944;2023-04-25T15:22:06;10.60;97.40
34099;DHT22;20374;49.474;10.944;2023-04-25T15:24:33;10.30;99.90
34099;DHT22;20374;49.474;10.944;2023-04-25T15:26:58;10.10;99.90
34099;DHT22;20374;49.474;10.944;2023-04-25T15:29:24;9.70;99.90
34099;DHT22;20374;49.474;10.944;2023-04-25T15:31:51;9.50;99.90
34099;DHT22;20374;49.474;10.944;2023-04-25T15:34:18;9.60;99.90
34099;DHT22;20374;49.474;10.944;2023-04-25T15:36:43;9.80;99.90
34099;DHT22;20374;49.474;10.944;2023-04-25T15:39:09;9.90;99.90
34099;DHT22;20374;49.474;10.944;2023-04-25T15:41:36;10.00;99.90
34099;DHT22;20374;49.474;10.944;2023-04-25T15:44:02;10.10;99.90
34099;DHT22;20374;49.474;10.944;2023-04-25T15:46:28;10.20;99.90
34099;DHT22;20374;49.474;10.944;2023-04-25T15:48:57;10.20;99.90
34099;DHT22;20374;49.474;10.944;2023-04-25T15:51:23;10.30;99.90
34099;DHT22;20374;49.474;10.944;2023-04-25T15:53:49;10.30;99.90